Strona główna
METAR-TAF:

METAR-TAF

Lotnisko :

Port lotniczy Chartum

Chartum, Sudan

Szerokość geograficzna: 15-36N, Długość geograficzna: 032-33E, wysokość: 382 m

Aktualna obserwacja pogody

Raport powstał 44 minut temu, godzina 08:00 UTC
Wiatr 8 kt od północ
Temperatura 38°C
Wilgotność 8%
Ciśnienie 1012 hPa
Widzialność 10 km lub więcej
Brak chmur poniżej 1500 m i brak chmur cumulonimbus

METAR: HSSS 280800Z 01008KT CAVOK 38/M02 Q1012 NOSIG

czas: 10:44 (08:44 UTC)

Prognoza

Raport powstał 3 godziny i 44 minut temu, godzina 05:00 UTC
Prognoza ważna od 28 godzina 06 UTC do 29 godzina 12 UTC
Wiatr 12 kt od północ w porywach dochodzący do 22 kt
Widzialność 10 km lub więcej
Brak chmur poniżej 1500 m i brak chmur cumulonimbus

TAF: HSSS 280500Z 2806/2912 36012G22KT CAVOK

Obserwacja i prognoza pogody dla ponad 4000 lotnisk (raport METAR i TAF).

Dostępne stacje oznaczono żółtymi i czerwonymi punktami na mapie.

Najedź kursorem aby zobaczyć nazwę stacji.

Kliknij aby zobaczyć obserwacje i prognozy pogody.

Aby zmienić mapę: kliknij na zielony przycisk z czarnym krzyżykiem, aby powiększyć; na zielony przycisk z myślnikiem, aby pomniejszyć; na zielone strzałki, aby przejść do map sąsiednich.


METAR-TAF: